Time;durP1;ratioP1;P1;durP2;ratioP2;P2;SDS_P1;SDS_P2;PMS_P1;PMS_P2;Temp;Humidity;BMP_temperature;BMP_pressure;BME280_temperature;BME280_humidity;BME280_pressure;Samples;Min_cycle;Max_cycle;Signal;HPM_P1;HPM_P2
2023/10/24 00:00:02;;;;;;;2.00;1.10;;;;;;;10.86;100.00;101120.70;108894;1253;73790;-49
2023/10/24 00:02:41;;;;;;;1.30;1.00;;;;;;;10.84;100.00;101124.51;107153;1258;66629;-49
2023/10/24 00:05:09;;;;;;;2.40;1.00;;;;;;;10.84;100.00;101120.20;104718;1254;72668;-47
2023/10/24 00:07:36;;;;;;;2.00;0.90;;;;;;;10.83;100.00;101117.89;104872;1254;60669;-47
2023/10/24 00:10:04;;;;;;;1.20;1.00;;;;;;;10.82;100.00;101112.02;104807;1258;60454;-46
2023/10/24 00:12:31;;;;;;;1.60;0.90;;;;;;;10.78;100.00;101111.59;104545;1258;74318;-49
2023/10/24 00:14:59;;;;;;;2.90;1.10;;;;;;;10.76;100.00;101106.77;107443;1253;65671;-50
2023/10/24 00:17:27;;;;;;;1.20;0.90;;;;;;;10.74;100.00;101111.49;104442;1253;72447;-50
2023/10/24 00:19:54;;;;;;;1.20;1.00;;;;;;;10.71;100.00;101112.32;104561;1255;60571;-49
2023/10/24 00:22:21;;;;;;;1.20;0.90;;;;;;;10.68;100.00;101104.88;104827;1254;60693;-49
2023/10/24 00:24:49;;;;;;;1.80;0.80;;;;;;;10.65;100.00;101104.73;104384;1258;72684;-50
2023/10/24 00:27:16;;;;;;;3.10;1.10;;;;;;;10.62;100.00;101102.14;104664;1258;68454;-49
2023/10/24 00:29:43;;;;;;;1.60;1.10;;;;;;;10.59;100.00;101098.99;104787;1253;71557;-51
2023/10/24 00:32:11;;;;;;;1.60;0.90;;;;;;;10.57;100.00;101099.20;104491;1257;62069;-51
2023/10/24 00:34:39;;;;;;;1.00;0.90;;;;;;;10.56;100.00;101098.70;104899;1258;60541;-49
2023/10/24 00:37:07;;;;;;;1.50;1.30;;;;;;;10.55;100.00;101099.27;108830;1258;73097;-50
2023/10/24 00:39:35;;;;;;;1.20;1.00;;;;;;;10.53;100.00;101098.25;105070;1254;68246;-50
2023/10/24 00:42:05;;;;;;;1.90;1.00;;;;;;;10.50;100.00;101099.60;104684;1253;71747;-48
2023/10/24 00:44:32;;;;;;;2.10;1.10;;;;;;;10.47;100.00;101094.10;104725;1258;60511;-52
2023/10/24 00:47:00;;;;;;;4.30;1.10;;;;;;;10.44;100.00;101096.71;104614;1253;60913;-51
2023/10/24 00:49:28;;;;;;;3.40;0.90;;;;;;;10.40;100.00;101089.80;108448;1260;73895;-52
2023/10/24 00:51:56;;;;;;;1.30;1.10;;;;;;;10.37;100.00;101085.62;104600;1259;65712;-49
2023/10/24 00:54:23;;;;;;;3.70;1.40;;;;;;;10.34;100.00;101082.27;105606;1260;73237;-50
2023/10/24 00:56:51;;;;;;;2.00;1.00;;;;;;;10.32;100.00;101082.48;104806;1257;60623;-48
2023/10/24 00:59:19;;;;;;;3.40;1.70;;;;;;;10.28;100.00;101074.70;104620;1259;60375;-49
2023/10/24 01:01:46;;;;;;;3.20;1.10;;;;;;;10.25;100.00;101071.91;104649;1253;72835;-49
2023/10/24 01:04:14;;;;;;;1.50;1.30;;;;;;;10.22;100.00;101068.38;108350;1254;65653;-50
2023/10/24 01:06:42;;;;;;;1.80;1.00;;;;;;;10.21;100.00;101070.76;105739;1258;72278;-50
2023/10/24 01:09:10;;;;;;;1.20;1.10;;;;;;;10.19;100.00;101070.98;104599;1258;60798;-48
2023/10/24 01:11:38;;;;;;;1.30;1.10;;;;;;;10.16;100.00;101066.72;104857;1257;60642;-49
2023/10/24 01:14:05;;;;;;;2.20;1.20;;;;;;;10.13;100.00;101058.35;104594;1258;72637;-49
2023/10/24 01:16:33;;;;;;;2.50;1.30;;;;;;;10.13;100.00;101055.67;104461;1253;65721;-50
2023/10/24 01:19:01;;;;;;;2.10;1.80;;;;;;;10.12;100.00;101056.59;104568;1258;72996;-52
2023/10/24 01:21:28;;;;;;;1.70;1.40;;;;;;;10.09;100.00;101050.05;104742;1253;62733;-49
2023/10/24 01:23:55;;;;;;;3.70;2.20;;;;;;;10.07;100.00;101050.82;104669;1259;60475;-50
2023/10/24 01:26:23;;;;;;;2.30;1.90;;;;;;;10.06;100.00;101054.42;104502;1260;73857;-49
2023/10/24 01:28:50;;;;;;;3.20;1.70;;;;;;;10.04;100.00;101057.15;104666;1257;67248;-48
2023/10/24 01:31:17;;;;;;;2.20;2.00;;;;;;;10.02;100.00;101055.98;104770;1254;73205;-50
2023/10/24 01:33:45;;;;;;;3.10;2.10;;;;;;;10.00;100.00;101052.98;104725;1259;60563;-51
2023/10/24 01:36:12;;;;;;;2.00;1.60;;;;;;;9.98;100.00;101052.66;104579;1258;60445;-51
2023/10/24 01:38:39;;;;;;;3.60;2.00;;;;;;;9.96;100.00;101048.25;104780;1253;72228;-49
2023/10/24 01:41:07;;;;;;;3.30;2.70;;;;;;;9.92;100.00;101042.42;104577;1260;67739;-51
2023/10/24 01:43:34;;;;;;;3.90;2.90;;;;;;;9.89;100.00;101042.66;104755;1260;72674;-49
2023/10/24 01:46:02;;;;;;;4.10;2.70;;;;;;;9.86;100.00;101039.87;108848;1253;60543;-50
2023/10/24 01:48:29;;;;;;;4.20;2.80;;;;;;;9.85;100.00;101039.73;108753;1253;59110;-50
2023/10/24 01:50:57;;;;;;;3.40;2.50;;;;;;;9.82;100.00;101038.52;104546;1253;72700;-49
2023/10/24 01:53:24;;;;;;;5.70;3.20;;;;;;;9.81;100.00;101035.88;104665;1261;66391;-49
2023/10/24 01:55:52;;;;;;;3.70;3.10;;;;;;;9.80;100.00;101038.23;106780;1258;71469;-50
2023/10/24 01:58:20;;;;;;;4.70;3.20;;;;;;;9.78;100.00;101034.70;105763;1253;60651;-49
2023/10/24 02:00:48;;;;;;;2.70;1.70;;;;;;;9.73;100.00;101032.30;105191;1253;60540;-49
2023/10/24 02:03:15;;;;;;;2.00;1.90;;;;;;;9.71;100.00;101034.67;104813;1254;74236;-50
2023/10/24 02:05:42;;;;;;;2.40;1.80;;;;;;;9.69;100.00;101035.27;104629;1260;67399;-50
2023/10/24 02:08:10;;;;;;;2.30;1.60;;;;;;;9.66;100.00;101028.70;104871;1254;72530;-49
2023/10/24 02:10:37;;;;;;;2.40;1.40;;;;;;;9.64;100.00;101024.10;104599;1253;61764;-49
2023/10/24 02:13:05;;;;;;;1.60;1.50;;;;;;;9.62;100.00;101027.20;108820;1253;58832;-51
2023/10/24 02:15:32;;;;;;;3.10;1.60;;;;;;;9.59;100.00;101027.83;104813;1254;73903;-49
2023/10/24 02:18:00;;;;;;;2.70;2.00;;;;;;;9.56;100.00;101026.81;104743;1255;68051;-49
2023/10/24 02:20:27;;;;;;;2.70;2.30;;;;;;;9.54;100.00;101025.61;104697;1259;73252;-48
2023/10/24 02:22:55;;;;;;;1.90;1.50;;;;;;;9.51;100.00;101026.41;104780;1259;62177;-50
2023/10/24 02:25:22;;;;;;;1.60;1.40;;;;;;;9.49;100.00;101025.01;104759;1259;60596;-50
2023/10/24 02:27:49;;;;;;;3.90;1.70;;;;;;;9.48;100.00;101022.34;108813;1253;73606;-49
2023/10/24 02:30:17;;;;;;;2.30;1.90;;;;;;;9.45;100.00;101023.85;108774;1253;69067;-50
2023/10/24 02:32:44;;;;;;;4.90;2.30;;;;;;;9.42;100.00;101019.45;108982;1254;72644;-51
2023/10/24 02:35:14;;;;;;;2.80;2.60;;;;;;;9.39;100.00;101016.98;108852;1253;59410;-51
2023/10/24 02:37:41;;;;;;;2.80;2.00;;;;;;;9.38;100.00;101012.73;108719;1260;58860;-50
2023/10/24 02:40:10;;;;;;;3.10;2.70;;;;;;;9.36;100.00;101007.95;108833;1258;72919;-50
2023/10/24 02:42:37;;;;;;;2.30;2.10;;;;;;;9.33;100.00;101004.27;108973;1253;67082;-51
2023/10/24 02:45:05;;;;;;;2.60;2.10;;;;;;;9.31;100.00;101001.06;108837;1253;73224;-50
2023/10/24 02:47:32;;;;;;;3.30;2.00;;;;;;;9.30;100.00;101001.27;108836;1253;60388;-49
2023/10/24 02:50:00;;;;;;;4.70;2.80;;;;;;;9.28;100.00;101002.02;108855;1253;58445;-49
2023/10/24 02:52:31;;;;;;;3.10;2.00;;;;;;;9.27;100.00;100997.06;108992;1253;73894;-49
2023/10/24 02:54:58;;;;;;;4.80;2.50;;;;;;;9.26;100.00;100997.81;108840;1253;65652;-49
2023/10/24 02:57:26;;;;;;;3.50;2.70;;;;;;;9.25;100.00;100998.71;108898;1255;71675;-50
2023/10/24 02:59:54;;;;;;;2.90;2.50;;;;;;;9.25;100.00;100997.83;108871;1254;61759;-50
2023/10/24 03:02:22;;;;;;;4.20;3.10;;;;;;;9.25;100.00;101008.57;105406;1260;60368;-49
2023/10/24 03:04:49;;;;;;;3.50;2.80;;;;;;;9.25;100.00;101012.14;104617;1254;73900;-50
2023/10/24 03:07:16;;;;;;;4.30;3.80;;;;;;;9.22;100.00;101008.27;104552;1260;66813;-48
2023/10/24 03:09:44;;;;;;;4.40;3.80;;;;;;;9.17;100.00;101005.33;104609;1259;71490;-48
2023/10/24 03:12:13;;;;;;;4.90;3.30;;;;;;;9.13;100.00;101001.84;104687;1258;60442;-49
2023/10/24 03:14:41;;;;;;;4.30;2.90;;;;;;;9.08;100.00;101000.54;104695;1259;60629;-49
2023/10/24 03:17:08;;;;;;;3.00;2.60;;;;;;;9.01;100.00;100989.22;104584;1254;73568;-49
2023/10/24 03:19:36;;;;;;;3.50;3.20;;;;;;;8.95;100.00;100981.30;108750;1258;66543;-50
2023/10/24 03:22:03;;;;;;;3.30;2.90;;;;;;;8.92;100.00;100977.43;105572;1256;71464;-48
2023/10/24 03:24:30;;;;;;;4.80;3.00;;;;;;;8.90;100.00;100975.15;104759;1259;61256;-48
2023/10/24 03:26:58;;;;;;;6.40;3.30;;;;;;;8.87;100.00;100970.01;104706;1254;60450;-49
2023/10/24 03:29:25;;;;;;;4.00;3.20;;;;;;;8.86;100.00;100971.29;104710;1254;72610;-50
2023/10/24 03:31:52;;;;;;;5.80;3.60;;;;;;;8.84;100.00;100971.54;104737;1261;66598;-48
2023/10/24 03:34:20;;;;;;;4.80;3.20;;;;;;;8.83;100.00;100970.30;104590;1257;70462;-49
2023/10/24 03:36:47;;;;;;;4.20;3.80;;;;;;;8.83;100.00;100969.59;104725;1261;61313;-48
2023/10/24 03:39:15;;;;;;;4.20;3.80;;;;;;;8.81;100.00;100968.02;104803;1256;60999;-49
2023/10/24 03:41:42;;;;;;;4.40;4.00;;;;;;;8.78;100.00;100968.60;104721;1255;74261;-49
2023/10/24 03:44:10;;;;;;;5.80;3.80;;;;;;;8.77;100.00;100965.77;104616;1258;67741;-49
2023/10/24 03:46:37;;;;;;;5.00;3.60;;;;;;;8.76;100.00;100960.08;108656;1259;73214;-51
2023/10/24 03:49:04;;;;;;;4.00;3.60;;;;;;;8.75;100.00;100955.10;108787;1257;61644;-49
2023/10/24 03:51:32;;;;;;;4.70;3.20;;;;;;;8.73;100.00;100948.50;106289;1260;60582;-49
2023/10/24 03:53:59;;;;;;;9.50;3.70;;;;;;;8.73;100.00;100952.27;104716;1254;72657;-51
2023/10/24 03:56:26;;;;;;;4.30;4.00;;;;;;;8.74;100.00;100949.55;104673;1256;65428;-50
2023/10/24 03:58:54;;;;;;;5.00;4.10;;;;;;;8.74;100.00;100946.34;104681;1256;71475;-47
2023/10/24 04:01:21;;;;;;;7.50;3.60;;;;;;;8.73;100.00;100945.81;104543;1254;61754;-48
2023/10/24 04:03:48;;;;;;;6.00;4.50;;;;;;;8.71;100.00;100943.69;105517;1259;61632;-50
2023/10/24 04:06:17;;;;;;;4.00;3.70;;;;;;;8.70;100.00;100947.11;104613;1268;74258;-50
2023/10/24 04:08:44;;;;;;;6.50;4.00;;;;;;;8.68;100.00;100942.31;104793;1259;68714;-49
2023/10/24 04:11:15;;;;;;;4.60;3.90;;;;;;;8.68;100.00;100943.59;104661;1257;73359;-49
2023/10/24 04:13:43;;;;;;;6.10;4.00;;;;;;;8.68;100.00;100948.23;105355;1256;60790;-50
2023/10/24 04:16:11;;;;;;;6.40;5.70;;;;;;;8.67;100.00;100943.63;104835;1259;60549;-48
2023/10/24 04:18:39;;;;;;;5.90;5.00;;;;;;;8.66;100.00;100942.58;105543;1254;72695;-49
2023/10/24 04:21:07;;;;;;;5.70;4.80;;;;;;;8.65;100.00;100941.52;104648;1261;67888;-50
2023/10/24 04:23:35;;;;;;;6.20;4.80;;;;;;;8.63;100.00;100940.64;104680;1268;72712;-49
2023/10/24 04:26:05;;;;;;;5.60;5.00;;;;;;;8.63;100.00;100945.31;105818;1259;60511;-51
2023/10/24 04:28:33;;;;;;;5.50;5.10;;;;;;;8.63;100.00;100950.85;104864;1258;60542;-49
2023/10/24 04:31:01;;;;;;;6.40;5.60;;;;;;;8.63;100.00;100952.29;104814;1259;73849;-51
2023/10/24 04:33:28;;;;;;;6.40;5.80;;;;;;;8.62;100.00;100951.23;104792;1261;66815;-49
2023/10/24 04:35:56;;;;;;;6.10;5.60;;;;;;;8.61;100.00;100950.89;104696;1259;72620;-52
2023/10/24 04:38:23;;;;;;;7.10;6.50;;;;;;;8.60;100.00;100953.05;104779;1258;60627;-50
2023/10/24 04:40:51;;;;;;;8.60;6.00;;;;;;;8.59;100.00;100952.92;104770;1258;59366;-50
2023/10/24 04:43:19;;;;;;;8.10;6.00;;;;;;;8.58;100.00;100951.87;107425;1258;72677;-49
2023/10/24 04:45:46;;;;;;;6.40;5.80;;;;;;;8.56;100.00;100948.50;104770;1254;68288;-49
2023/10/24 04:48:14;;;;;;;7.50;6.80;;;;;;;8.56;100.00;100948.32;104822;1259;73114;-50
2023/10/24 04:50:41;;;;;;;7.90;6.80;;;;;;;8.56;100.00;100949.59;104737;1261;60643;-49
2023/10/24 04:53:08;;;;;;;7.50;6.90;;;;;;;8.56;100.00;100953.52;104417;1254;173841;-50
2023/10/24 04:56:30;;;;;;;6.80;6.10;;;;;;;8.58;100.00;101045.08;101822;1292;599711;-48
2023/10/24 04:58:57;;;;;;;9.30;8.50;;;;;;;8.55;100.00;101090.93;104348;1263;60237;-48
2023/10/24 05:01:25;;;;;;;7.90;7.20;;;;;;;8.55;100.00;101068.21;104442;1257;59452;-49
2023/10/24 05:03:52;;;;;;;8.00;6.90;;;;;;;8.53;100.00;101055.36;104415;1260;70043;-49
2023/10/24 05:06:20;;;;;;;7.10;6.40;;;;;;;8.51;100.00;101041.98;108539;1257;67738;-50
2023/10/24 05:08:47;;;;;;;9.40;7.40;;;;;;;8.49;100.00;101034.00;105245;1260;73140;-49
2023/10/24 05:11:14;;;;;;;8.10;7.30;;;;;;;8.48;100.00;101025.07;104544;1262;121872;-50
2023/10/24 05:13:42;;;;;;;9.70;6.20;;;;;;;8.49;100.00;101028.98;104671;1257;60533;-50
2023/10/24 05:16:10;;;;;;;7.40;6.70;;;;;;;8.53;100.00;101028.53;104560;1257;71067;-50
2023/10/24 05:18:38;;;;;;;10.00;7.10;;;;;;;8.58;100.00;101036.49;105237;1257;66186;-52
2023/10/24 05:21:05;;;;;;;7.50;6.80;;;;;;;8.62;100.00;101039.45;104781;1256;71482;-50
2023/10/24 05:23:32;;;;;;;10.10;8.50;;;;;;;8.66;100.00;101045.28;104405;1257;61362;-50
2023/10/24 05:26:00;;;;;;;8.20;5.70;;;;;;;8.70;100.00;101050.91;104748;1261;59561;-49
2023/10/24 05:28:27;;;;;;;6.80;5.60;;;;;;;8.77;100.00;101054.19;104556;1254;73212;-50
2023/10/24 05:30:55;;;;;;;6.40;5.50;;;;;;;8.80;100.00;101051.62;108729;1257;66288;-50
2023/10/24 05:33:22;;;;;;;6.30;5.30;;;;;;;8.80;100.00;101059.11;108751;1257;72708;-49
2023/10/24 05:35:50;;;;;;;6.90;5.60;;;;;;;8.82;100.00;101052.48;108766;1257;60272;-50
2023/10/24 05:38:18;;;;;;;5.70;4.80;;;;;;;8.83;100.00;101057.11;108749;1254;60214;-51
2023/10/24 05:40:45;;;;;;;6.70;5.70;;;;;;;8.85;100.00;101054.91;105337;1257;71815;-50
2023/10/24 05:43:13;;;;;;;7.10;5.60;;;;;;;8.87;100.00;101060.95;108726;1257;67911;-51
2023/10/24 05:45:40;;;;;;;6.90;6.20;;;;;;;8.90;100.00;101062.86;108682;1257;71499;-50
2023/10/24 05:48:08;;;;;;;6.10;5.00;;;;;;;8.93;100.00;101061.53;108707;1257;60469;-50
2023/10/24 05:50:36;;;;;;;10.00;5.80;;;;;;;8.97;100.00;101055.02;108756;1259;60083;-52
2023/10/24 05:53:04;;;;;;;6.30;5.20;;;;;;;9.02;100.00;101064.57;108561;1257;73013;-53
2023/10/24 05:55:33;;;;;;;4.70;4.40;;;;;;;9.08;100.00;101069.09;108686;1257;67146;-51
2023/10/24 05:58:03;;;;;;;5.10;4.80;;;;;;;9.15;100.00;101069.32;108675;1257;73206;-51
2023/10/24 06:00:30;;;;;;;6.30;4.70;;;;;;;9.21;100.00;101063.63;108634;1257;62205;-52
2023/10/24 06:02:57;;;;;;;6.90;6.30;;;;;;;9.28;100.00;101069.94;108823;1256;58988;-51
2023/10/24 06:05:25;;;;;;;7.30;5.60;;;;;;;9.33;100.00;101079.66;108977;1254;73082;-52
2023/10/24 06:07:53;;;;;;;7.40;6.40;;;;;;;9.38;100.00;101085.82;108973;1253;67719;-52
2023/10/24 06:10:20;;;;;;;6.60;6.00;;;;;;;9.41;100.00;101084.14;109045;1253;73212;-50
2023/10/24 06:12:47;;;;;;;6.20;5.60;;;;;;;9.45;100.00;101089.42;109016;1253;60416;-50
2023/10/24 06:15:15;;;;;;;6.10;5.40;;;;;;;9.49;100.00;101087.19;109059;1254;60188;-51
2023/10/24 06:17:42;;;;;;;8.60;4.70;;;;;;;9.54;100.00;101091.38;107305;1256;71848;-49
2023/10/24 06:20:10;;;;;;;6.10;5.30;;;;;;;9.59;100.00;101100.23;105435;1254;66661;-50
2023/10/24 06:22:38;;;;;;;7.00;5.10;;;;;;;9.64;100.00;101106.73;104978;1254;73081;-49
2023/10/24 06:25:05;;;;;;;5.70;5.20;;;;;;;9.70;100.00;101110.73;104794;1254;60490;-50
2023/10/24 06:27:32;;;;;;;5.80;4.90;;;;;;;9.75;100.00;101114.70;104716;1256;60859;-49
2023/10/24 06:30:00;;;;;;;6.00;5.50;;;;;;;9.83;100.00;101122.42;104841;1259;71840;-48
2023/10/24 06:32:27;;;;;;;4.90;4.10;;;;;;;9.90;100.00;101126.02;104827;1256;65792;-47
2023/10/24 06:34:55;;;;;;;4.40;3.80;;;;;;;9.96;100.00;101127.32;104933;1254;73208;-48
2023/10/24 06:37:22;;;;;;;6.00;5.40;;;;;;;10.03;100.00;101135.03;104882;1254;62250;-49
2023/10/24 06:39:49;;;;;;;7.60;4.80;;;;;;;10.10;100.00;101143.29;104787;1254;60490;-50
2023/10/24 06:42:17;;;;;;;5.40;4.70;;;;;;;10.16;100.00;101153.19;104933;1257;73636;-49
2023/10/24 06:44:44;;;;;;;4.80;4.40;;;;;;;10.21;100.00;101155.95;104951;1259;68188;-49
2023/10/24 06:47:11;;;;;;;5.60;4.30;;;;;;;10.29;100.00;101156.33;104848;1257;73297;-50
2023/10/24 06:49:38;;;;;;;4.00;3.70;;;;;;;10.36;100.00;101160.45;104560;1254;61742;-50
2023/10/24 06:52:07;;;;;;;5.50;3.20;;;;;;;10.42;100.00;101172.49;108949;1253;58895;-50
2023/10/24 06:54:34;;;;;;;4.20;3.30;;;;;;;10.48;100.00;101177.36;107968;1253;71825;-49
2023/10/24 06:57:01;;;;;;;2.90;2.60;;;;;;;10.56;100.00;101180.91;104782;1254;68020;-49
2023/10/24 06:59:29;;;;;;;2.50;2.30;;;;;;;10.64;100.00;101190.77;104762;1256;72720;-48
2023/10/24 07:01:57;;;;;;;3.50;3.20;;;;;;;10.72;100.00;101202.79;105325;1253;60723;-49
2023/10/24 07:04:24;;;;;;;3.60;3.30;;;;;;;10.77;100.00;101211.44;105406;1254;60252;-48
2023/10/24 07:06:51;;;;;;;2.80;2.50;;;;;;;10.84;100.00;101214.13;104753;1259;72096;-48
2023/10/24 07:09:19;;;;;;;4.40;3.80;;;;;;;10.88;100.00;101224.42;104912;1253;68594;-47
2023/10/24 07:11:46;;;;;;;5.60;3.90;;;;;;;10.95;100.00;101232.50;104909;1255;71439;-48
2023/10/24 07:14:14;;;;;;;3.40;2.90;;;;;;;11.03;100.00;101238.95;104595;1257;60575;-50
2023/10/24 07:16:41;;;;;;;2.70;1.90;;;;;;;11.11;100.00;101248.25;104886;1254;59928;-50
2023/10/24 07:19:10;;;;;;;3.20;2.20;;;;;;;11.18;100.00;101261.72;104550;1259;73023;-48
2023/10/24 07:21:37;;;;;;;3.60;2.00;;;;;;;11.23;100.00;101265.71;106853;1257;66962;-47
2023/10/24 07:24:05;;;;;;;3.70;2.10;;;;;;;11.28;100.00;101278.52;104874;1259;72714;-50
2023/10/24 07:26:32;;;;;;;2.70;2.00;;;;;;;11.33;100.00;101284.48;106817;1257;60448;-51
2023/10/24 07:28:59;;;;;;;2.30;1.80;;;;;;;11.38;100.00;101292.08;104860;1259;60507;-49
2023/10/24 07:31:27;;;;;;;1.80;1.60;;;;;;;11.43;100.00;101299.48;104803;1254;72365;-49
2023/10/24 07:33:54;;;;;;;2.70;1.60;;;;;;;11.49;100.00;101305.97;104941;1254;67857;-50
2023/10/24 07:36:23;;;;;;;1.50;1.40;;;;;;;11.56;100.00;101311.91;104852;1257;73147;-48
2023/10/24 07:38:50;;;;;;;3.40;2.70;;;;;;;11.63;100.00;101321.96;106434;1254;59399;-49
2023/10/24 07:41:17;;;;;;;1.60;1.50;;;;;;;11.68;100.00;101327.22;104944;1254;60075;-48
2023/10/24 07:43:45;;;;;;;3.30;1.50;;;;;;;11.71;100.00;101333.25;104864;1253;73723;-50
2023/10/24 07:46:12;;;;;;;1.40;1.30;;;;;;;11.74;100.00;101343.06;104892;1254;68014;-48
2023/10/24 07:48:39;;;;;;;1.50;1.30;;;;;;;11.78;100.00;101352.15;104833;1254;72705;-47
2023/10/24 07:51:10;;;;;;;1.60;1.00;;;;;;;11.82;100.00;101357.79;104785;1259;62359;-49
2023/10/24 07:53:38;;;;;;;1.50;0.90;;;;;;;11.86;100.00;101370.09;104789;1254;59809;-50
2023/10/24 07:56:05;;;;;;;1.30;1.10;;;;;;;11.89;100.00;101371.81;104747;1254;70916;-49
2023/10/24 07:58:33;;;;;;;2.50;1.40;;;;;;;11.92;100.00;101376.38;105392;1254;67616;-49
2023/10/24 08:01:00;;;;;;;3.00;1.40;;;;;;;11.97;100.00;101382.89;104948;1254;72699;-51
2023/10/24 08:03:28;;;;;;;1.20;1.00;;;;;;;12.03;100.00;101387.58;105590;1253;60139;-49
2023/10/24 08:05:56;;;;;;;4.20;1.30;;;;;;;12.13;100.00;101393.97;105542;1256;59623;-49
2023/10/24 08:08:23;;;;;;;1.30;1.20;;;;;;;12.22;100.00;101405.60;104725;1254;73439;-49
2023/10/24 08:10:51;;;;;;;1.50;1.00;;;;;;;12.30;100.00;101417.23;104923;1255;67879;-49
2023/10/24 08:13:18;;;;;;;1.40;0.80;;;;;;;12.37;100.00;101428.37;104884;1257;72674;-49
2023/10/24 08:15:48;;;;;;;1.60;1.10;;;;;;;12.43;100.00;101431.79;104749;1254;61696;-50
2023/10/24 08:18:15;;;;;;;1.30;0.70;;;;;;;12.50;100.00;101442.92;104907;1254;59682;-49
2023/10/24 08:20:43;;;;;;;2.70;0.80;;;;;;;12.57;100.00;101452.46;104918;1254;72160;-49
2023/10/24 08:23:11;;;;;;;0.90;0.70;;;;;;;12.61;100.00;101458.09;104875;1257;67241;-49
2023/10/24 08:25:38;;;;;;;3.00;0.70;;;;;;;12.68;100.00;101476.77;104685;1254;72737;-48
2023/10/24 08:28:06;;;;;;;1.40;0.70;;;;;;;12.75;100.00;101489.90;108042;1254;58839;-50
2023/10/24 08:30:34;;;;;;;0.90;0.70;;;;;;;12.82;100.00;101498.34;104838;1254;60073;-50
2023/10/24 08:33:01;;;;;;;0.90;0.60;;;;;;;12.91;100.00;101507.61;108985;1254;73063;-51
2023/10/24 08:35:29;;;;;;;2.40;0.60;;;;;;;13.00;100.00;101520.31;109061;1257;67840;-51
2023/10/24 08:37:56;;;;;;;2.00;0.70;;;;;;;13.06;100.00;101530.95;109089;1254;72743;-51
2023/10/24 08:40:24;;;;;;;0.70;0.60;;;;;;;13.08;100.00;101541.36;108944;1254;60298;-51
2023/10/24 08:42:51;;;;;;;1.20;0.80;;;;;;;13.08;100.00;101545.88;108889;1254;58921;-50
2023/10/24 08:45:19;;;;;;;1.00;0.70;;;;;;;13.07;100.00;101556.15;109044;1253;73099;-50
2023/10/24 08:47:47;;;;;;;1.40;0.80;;;;;;;13.06;100.00;101557.44;108997;1252;67550;-52
2023/10/24 08:50:15;;;;;;;3.00;0.70;;;;;;;13.09;100.00;101566.36;108996;1254;74533;-52
2023/10/24 08:52:43;;;;;;;4.40;0.90;;;;;;;13.13;100.00;101567.69;108892;1254;62115;-50
2023/10/24 08:55:11;;;;;;;3.40;0.60;;;;;;;13.14;100.00;101569.13;108840;1254;58138;-51
2023/10/24 08:57:40;;;;;;;0.80;0.60;;;;;;;13.18;100.00;101573.16;109013;1254;71730;-50
2023/10/24 09:00:10;;;;;;;0.90;0.70;;;;;;;13.25;100.00;101587.54;109083;1254;65751;-50
2023/10/24 09:02:41;;;;;;;1.40;0.80;;;;;;;13.31;100.00;101601.25;109051;1254;72231;-52
2023/10/24 09:05:09;;;;;;;1.90;0.80;;;;;;;13.33;100.00;101607.68;108988;1254;60573;-51
2023/10/24 09:07:36;;;;;;;2.00;0.60;;;;;;;13.33;100.00;101611.65;108927;1254;58969;-51
2023/10/24 09:10:04;;;;;;;0.70;0.70;;;;;;;13.32;100.00;101610.96;108903;1254;72697;-51
2023/10/24 09:12:32;;;;;;;1.00;0.80;;;;;;;13.30;100.00;101608.85;108934;1254;67464;-51
2023/10/24 09:14:59;;;;;;;0.90;0.60;;;;;;;13.29;100.00;101605.82;109015;1258;73054;-51
2023/10/24 09:17:29;;;;;;;0.80;0.70;;;;;;;13.30;100.00;101609.02;108834;1253;58883;-51
2023/10/24 09:19:57;;;;;;;2.70;0.70;;;;;;;13.31;100.00;101614.21;108918;1253;60722;-52
2023/10/24 09:22:26;;;;;;;2.20;0.70;;;;;;;13.35;100.00;101609.08;109034;1253;71910;-51
2023/10/24 09:24:55;;;;;;;1.30;0.60;;;;;;;13.39;100.00;101617.05;106507;1257;67046;-50
2023/10/24 09:27:24;;;;;;;1.30;0.60;;;;;;;13.46;100.00;101634.14;109081;1253;72703;-52
2023/10/24 09:29:52;;;;;;;1.60;0.70;;;;;;;13.51;100.00;101629.67;109048;1253;61741;-52
2023/10/24 09:32:20;;;;;;;1.30;0.60;;;;;;;13.55;100.00;101629.00;108970;1254;59090;-49
2023/10/24 09:34:48;;;;;;;0.60;0.50;;;;;;;13.60;100.00;101626.50;108930;1253;72651;-52
2023/10/24 09:37:16;;;;;;;1.60;0.60;;;;;;;13.68;100.00;101634.54;107483;1254;67500;-51
2023/10/24 09:39:57;;;;;;;3.10;0.50;;;;;;;13.76;100.00;101642.96;104632;1259;72901;-49
2023/10/24 09:42:25;;;;;;;1.70;0.60;;;;;;;13.83;100.00;101661.33;104640;1254;61061;-48
2023/10/24 09:45:00;;;;;;;0.80;0.60;;;;;;;13.85;100.00;101665.77;104922;1257;60459;-49
2023/10/24 09:47:29;;;;;;;2.80;0.70;;;;;;;13.87;100.00;101657.19;105677;1254;72608;-49
2023/10/24 09:49:59;;;;;;;2.10;0.60;;;;;;;13.90;100.00;101659.81;106080;1254;64732;-50
2023/10/24 09:52:28;;;;;;;0.50;0.50;;;;;;;13.95;100.00;101660.75;104745;1256;70505;-51
2023/10/24 09:54:57;;;;;;;1.60;0.70;;;;;;;14.02;100.00;101668.11;105709;1254;60449;-50
2023/10/24 09:57:26;;;;;;;1.30;0.60;;;;;;;14.07;100.00;101673.17;104668;1253;60388;-50
2023/10/24 09:59:57;;;;;;;1.70;0.70;;;;;;;14.12;100.00;101683.68;109078;1253;72665;-51
2023/10/24 10:02:25;;;;;;;1.20;0.70;;;;;;;14.17;100.00;101686.77;104992;1254;66466;-50
2023/10/24 10:04:52;;;;;;;1.40;0.60;;;;;;;14.19;100.00;101690.67;106854;1254;71467;-50
2023/10/24 10:07:21;;;;;;;1.20;0.60;;;;;;;14.20;100.00;101688.27;104880;1255;60529;-49
2023/10/24 10:09:54;;;;;;;0.80;0.60;;;;;;;14.22;100.00;101690.37;105639;1259;60358;-49
2023/10/24 10:12:21;;;;;;;0.70;0.60;;;;;;;14.26;100.00;101704.89;105479;1254;74305;-50
2023/10/24 10:15:06;;;;;;;1.30;0.50;;;;;;;14.29;100.00;101703.88;104711;1254;69663;-51
2023/10/24 10:18:01;;;;;;;1.70;0.50;;;;;;;14.33;100.00;101730.48;104841;1259;71430;-50
2023/10/24 10:21:17;;;;;;;2.50;0.50;;;;;;;14.34;100.00;101750.12;104803;1259;61152;-49
2023/10/24 10:24:11;;;;;;;1.00;0.60;;;;;;;14.35;100.00;101784.05;105322;1260;62094;-51
2023/10/24 10:27:03;;;;;;;0.50;0.50;;;;;;;14.33;100.00;101765.15;105028;1254;73911;-49
2023/10/24 10:29:44;;;;;;;0.70;0.70;;;;;;;14.32;100.00;101767.34;104787;1255;67573;-48
2023/10/24 10:32:20;;;;;;;1.10;0.60;;;;;;;14.34;100.00;101763.11;104849;1259;71617;-49
2023/10/24 10:35:08;;;;;;;0.90;0.60;;;;;;;14.36;100.00;101781.86;104822;1259;60464;-49
2023/10/24 10:37:35;;;;;;;0.60;0.50;;;;;;;14.37;100.00;101742.61;104858;1254;62578;-50
2023/10/24 10:40:15;;;;;;;0.80;0.60;;;;;;;14.37;100.00;101741.15;104915;1259;73878;-51
2023/10/24 10:42:49;;;;;;;1.90;0.60;;;;;;;14.35;100.00;101751.00;104749;1259;66763;-50
2023/10/24 10:45:30;;;;;;;;;;;;;;;14.32;100.00;101741.50;104880;1257;73216;-49
2023/10/24 10:47:58;;;;;;;0.60;0.60;;;;;;;14.31;100.00;101741.17;104829;1254;60559;-50
2023/10/24 10:50:27;;;;;;;0.60;0.50;;;;;;;14.33;100.00;101724.67;108836;1252;60888;-50
2023/10/24 10:53:21;;;;;;;0.90;0.80;;;;;;;14.35;100.00;101723.17;109083;1254;73936;-49
2023/10/24 10:56:09;;;;;;;0.70;0.60;;;;;;;14.32;100.00;101750.34;106796;1259;68006;-49
2023/10/24 10:58:40;;;;;;;1.80;0.50;;;;;;;14.27;100.00;101736.44;104582;1254;73291;-49
2023/10/24 11:01:26;;;;;;;2.40;0.60;;;;;;;14.25;100.00;101713.92;104870;1253;60479;-50
2023/10/24 11:03:56;;;;;;;1.40;0.50;;;;;;;14.24;100.00;101724.07;104823;1254;60833;-49
2023/10/24 11:06:26;;;;;;;0.60;0.50;;;;;;;14.26;100.00;101705.78;104669;1259;74362;-48
2023/10/24 11:09:10;;;;;;;0.80;0.40;;;;;;;14.30;100.00;101702.55;108957;1254;66817;-50
2023/10/24 11:11:37;;;;;;;0.90;0.60;;;;;;;14.36;100.00;101728.38;107175;1257;72879;-51
2023/10/24 11:14:21;;;;;;;0.60;0.50;;;;;;;14.40;100.00;101706.42;105405;1257;60484;-48
2023/10/24 11:16:49;;;;;;;1.00;0.40;;;;;;;14.42;100.00;101716.30;104806;1254;60501;-51
2023/10/24 11:19:21;;;;;;;0.60;0.40;;;;;;;14.46;100.00;101701.71;104676;1254;74675;-48